createdAt,value
2018-01-15T00:00:09.662Z,25.10
2018-01-15T00:02:37.297Z,24.30
2018-01-15T00:05:04.973Z,24.10
2018-01-15T00:07:32.590Z,25.77
2018-01-15T00:10:00.292Z,22.40
2018-01-15T00:12:27.867Z,24.63
2018-01-15T00:14:55.490Z,24.47
2018-01-15T00:17:23.112Z,24.33
2018-01-15T00:19:50.696Z,24.17
2018-01-15T00:22:18.321Z,24.33
2018-01-15T00:24:45.901Z,24.80
2018-01-15T00:27:13.536Z,24.87
2018-01-15T00:29:41.115Z,24.17
2018-01-15T00:32:08.700Z,23.70
2018-01-15T00:34:36.326Z,24.60
2018-01-15T00:37:03.919Z,23.60
2018-01-15T00:39:31.536Z,23.73
2018-01-15T00:41:59.111Z,25.23
2018-01-15T00:44:26.734Z,23.93
2018-01-15T00:46:54.315Z,23.30
2018-01-15T00:49:21.943Z,24.00
2018-01-15T00:51:49.520Z,23.80
2018-01-15T00:54:17.110Z,24.33
2018-01-15T00:56:44.735Z,23.40
2018-01-15T00:59:12.352Z,24.20
2018-01-15T01:01:39.977Z,24.07
2018-01-15T01:04:07.563Z,24.53
2018-01-15T01:06:35.185Z,23.23
2018-01-15T01:09:02.852Z,23.03
2018-01-15T01:11:30.432Z,23.40
2018-01-15T01:13:58.013Z,22.53
2018-01-15T01:16:25.627Z,24.30
2018-01-15T01:18:53.221Z,22.93
2018-01-15T01:21:20.844Z,23.97
2018-01-15T01:23:48.474Z,23.63
2018-01-15T01:26:16.054Z,23.40
2018-01-15T01:28:43.635Z,23.80
2018-01-15T01:31:11.264Z,23.33
2018-01-15T01:33:38.855Z,23.47
2018-01-15T01:36:06.438Z,22.63
2018-01-15T01:38:34.058Z,22.10
2018-01-15T01:41:01.651Z,22.67
2018-01-15T01:43:29.247Z,22.37
2018-01-15T01:45:56.863Z,22.33
2018-01-15T01:48:24.443Z,23.37
2018-01-15T01:50:52.069Z,22.87
2018-01-15T01:53:20.411Z,22.17
2018-01-15T01:55:48.038Z,21.47
2018-01-15T01:58:15.667Z,21.03
2018-01-15T02:00:44.061Z,22.27
2018-01-15T02:03:11.644Z,21.37
2018-01-15T02:05:39.230Z,21.90
2018-01-15T02:08:06.865Z,20.27
2018-01-15T02:10:34.452Z,21.50
2018-01-15T02:13:02.033Z,21.90
2018-01-15T02:15:29.665Z,22.10
2018-01-15T02:17:57.288Z,21.93
2018-01-15T02:20:24.873Z,23.53
2018-01-15T02:22:52.494Z,20.83
2018-01-15T02:25:20.081Z,21.40
2018-01-15T02:27:47.716Z,21.33
2018-01-15T02:30:15.291Z,22.17
2018-01-15T02:32:42.863Z,22.23
2018-01-15T02:35:10.484Z,22.60
2018-01-15T02:37:38.074Z,21.77
2018-01-15T02:40:05.690Z,21.63
2018-01-15T02:42:33.283Z,21.57
2018-01-15T02:45:01.670Z,20.30
2018-01-15T02:47:30.020Z,18.30
2018-01-15T02:49:57.607Z,19.73
2018-01-15T02:52:25.237Z,20.13
2018-01-15T02:54:52.860Z,18.93
2018-01-15T02:57:20.436Z,19.20
2018-01-15T02:59:48.015Z,20.13
2018-01-15T03:02:15.635Z,17.43
2018-01-15T03:04:43.214Z,18.40
2018-01-15T03:07:10.833Z,18.70
2018-01-15T03:09:38.418Z,17.97
2018-01-15T03:12:06.026Z,18.13
2018-01-15T03:14:33.647Z,18.93
2018-01-15T03:17:01.227Z,17.07
2018-01-15T03:19:28.836Z,18.33
2018-01-15T03:21:57.185Z,17.80
2018-01-15T03:24:24.799Z,17.03
2018-01-15T03:26:52.391Z,17.90
2018-01-15T03:29:20.010Z,17.97
2018-01-15T03:31:47.627Z,17.67
2018-01-15T03:34:15.243Z,17.30
2018-01-15T03:36:42.831Z,17.50
2018-01-15T03:39:10.450Z,17.60
2018-01-15T03:41:38.074Z,17.43
2018-01-15T03:44:05.663Z,19.13
2018-01-15T03:46:33.280Z,18.50
2018-01-15T03:49:00.856Z,18.63
2018-01-15T03:51:28.457Z,18.30
2018-01-15T03:53:56.085Z,16.87
2018-01-15T03:56:23.669Z,17.03
2018-01-15T03:58:51.256Z,17.40
2018-01-15T04:01:18.907Z,17.20
2018-01-15T04:03:46.481Z,17.43
2018-01-15T04:06:14.063Z,17.53
2018-01-15T04:08:41.671Z,16.80
2018-01-15T04:11:09.292Z,17.53
2018-01-15T04:13:36.868Z,17.03
2018-01-15T04:16:04.484Z,17.47
2018-01-15T04:18:32.064Z,17.37
2018-01-15T04:20:59.689Z,17.00
2018-01-15T04:23:27.937Z,16.73
2018-01-15T04:25:55.521Z,16.60
2018-01-15T04:28:23.135Z,16.70
2018-01-15T04:30:50.715Z,16.53
2018-01-15T04:33:18.328Z,16.73
2018-01-15T04:35:45.904Z,16.63
2018-01-15T04:38:13.521Z,17.20
2018-01-15T04:40:41.111Z,17.13
2018-01-15T04:43:08.729Z,16.57
2018-01-15T04:45:36.355Z,16.57
2018-01-15T04:48:03.932Z,16.97
2018-01-15T04:50:31.504Z,16.53
2018-01-15T04:52:59.144Z,16.27
2018-01-15T04:55:26.721Z,18.43
2018-01-15T04:57:54.294Z,17.67
2018-01-15T05:00:22.235Z,16.63
2018-01-15T05:02:49.853Z,17.07
2018-01-15T05:05:17.473Z,18.43
2018-01-15T05:07:45.050Z,18.13
2018-01-15T05:10:12.669Z,16.97
2018-01-15T05:12:40.248Z,17.50
2018-01-15T05:15:07.870Z,17.67
2018-01-15T05:17:35.452Z,17.30
2018-01-15T05:20:03.029Z,16.40
2018-01-15T05:22:30.644Z,16.50
2018-01-15T05:24:58.991Z,16.07
2018-01-15T05:27:26.625Z,16.10
2018-01-15T05:29:54.209Z,16.53
2018-01-15T05:32:21.786Z,16.03
2018-01-15T05:34:49.404Z,16.77
2018-01-15T05:37:16.988Z,16.70
2018-01-15T05:39:44.611Z,17.30
2018-01-15T05:42:12.187Z,17.00
2018-01-15T05:44:39.765Z,17.27
2018-01-15T05:47:07.395Z,17.53
2018-01-15T05:49:34.974Z,17.47
2018-01-15T05:52:02.553Z,16.77
2018-01-15T05:54:30.165Z,17.47
2018-01-15T05:56:57.744Z,16.50
2018-01-15T05:59:25.373Z,16.27
2018-01-15T06:01:52.949Z,17.33
2018-01-15T06:04:20.540Z,17.33
2018-01-15T06:06:48.151Z,16.63
2018-01-15T06:09:15.823Z,17.10
2018-01-15T06:11:44.370Z,16.63
2018-01-15T06:14:11.952Z,16.70
2018-01-15T06:16:39.668Z,17.07
2018-01-15T06:19:07.272Z,17.83
2018-01-15T06:21:34.851Z,16.80
2018-01-15T06:24:03.228Z,17.40
2018-01-15T06:26:31.571Z,17.63
2018-01-15T06:28:59.196Z,18.20
2018-01-15T06:31:26.805Z,15.90
2018-01-15T06:33:54.418Z,17.23
2018-01-15T06:36:21.997Z,17.43
2018-01-15T06:38:49.628Z,18.17
2018-01-15T06:41:17.200Z,17.33
2018-01-15T06:43:44.773Z,17.17
2018-01-15T06:46:12.393Z,16.47
2018-01-15T06:48:40.014Z,18.00
2018-01-15T06:51:07.630Z,18.13
2018-01-15T06:53:35.262Z,17.20
2018-01-15T06:56:02.847Z,17.90
2018-01-15T06:58:30.424Z,17.57
2018-01-15T07:00:58.039Z,18.27
2018-01-15T07:03:25.750Z,17.77
2018-01-15T07:05:53.319Z,18.83
2018-01-15T07:08:20.893Z,17.90
2018-01-15T07:10:48.499Z,18.73
2018-01-15T07:13:16.075Z,17.90
2018-01-15T07:15:44.455Z,19.37
2018-01-15T07:18:15.114Z,18.77
2018-01-15T07:20:44.851Z,17.37
2018-01-15T07:23:14.308Z,18.77
2018-01-15T07:25:41.884Z,18.80
2018-01-15T07:28:12.507Z,18.10
2018-01-15T07:30:40.879Z,18.77
2018-01-15T07:33:09.210Z,18.23
2018-01-15T07:35:36.780Z,19.23
2018-01-15T07:38:06.729Z,19.90
2018-01-15T07:40:34.304Z,18.20
2018-01-15T07:43:01.929Z,19.63
2018-01-15T07:45:29.499Z,18.43
2018-01-15T07:47:57.077Z,18.93
2018-01-15T07:50:25.471Z,17.90
2018-01-15T07:52:53.044Z,19.10
2018-01-15T07:55:20.616Z,18.53
2018-01-15T07:57:48.787Z,17.83
2018-01-15T08:00:16.410Z,18.70
2018-01-15T08:02:43.990Z,17.87
2018-01-15T08:05:11.602Z,19.03
2018-01-15T08:07:39.186Z,17.73
2018-01-15T08:10:07.586Z,17.93
2018-01-15T08:12:35.926Z,19.13
2018-01-15T08:15:03.542Z,19.07
2018-01-15T08:17:31.162Z,19.00
2018-01-15T08:19:58.745Z,17.67
2018-01-15T08:22:27.129Z,17.70
2018-01-15T08:24:54.713Z,19.27
2018-01-15T08:27:22.371Z,18.13
2018-01-15T08:29:49.944Z,18.13
2018-01-15T08:32:17.564Z,18.53
2018-01-15T08:34:45.944Z,19.27
2018-01-15T08:37:13.521Z,19.60
2018-01-15T08:39:41.137Z,18.77
2018-01-15T08:42:08.714Z,17.77
2018-01-15T08:44:36.367Z,17.97
2018-01-15T08:47:03.940Z,18.00
2018-01-15T08:49:31.520Z,17.80
2018-01-15T08:52:01.673Z,19.30
2018-01-15T08:54:29.287Z,18.03
2018-01-15T08:56:58.909Z,19.60
2018-01-15T08:59:26.528Z,19.50
2018-01-15T09:01:54.104Z,20.43
2018-01-15T09:04:21.726Z,18.07
2018-01-15T09:06:49.298Z,17.77
2018-01-15T09:09:16.925Z,18.10
2018-01-15T09:11:44.502Z,17.80
2018-01-15T09:14:12.075Z,18.90
2018-01-15T09:16:39.692Z,17.83
2018-01-15T09:19:08.035Z,18.60
2018-01-15T09:21:35.650Z,18.67
2018-01-15T09:24:03.236Z,18.30
2018-01-15T09:26:31.459Z,18.00
2018-01-15T09:28:59.044Z,20.23
2018-01-15T09:31:26.658Z,17.93
2018-01-15T09:33:54.234Z,17.80
2018-01-15T09:36:23.809Z,18.00
2018-01-15T09:38:53.118Z,17.97
2018-01-15T09:41:23.058Z,17.97
2018-01-15T09:43:53.167Z,18.00
2018-01-15T09:46:20.736Z,18.13
2018-01-15T09:48:48.362Z,18.10
2018-01-15T09:51:15.986Z,17.23
2018-01-15T09:53:43.575Z,18.97
2018-01-15T09:56:11.151Z,18.50
2018-01-15T09:58:41.642Z,19.87
2018-01-15T10:01:09.252Z,19.00
2018-01-15T10:03:38.460Z,19.03
2018-01-15T10:06:09.265Z,19.53
2018-01-15T10:08:38.287Z,20.63
2018-01-15T10:11:06.081Z,20.00
2018-01-15T10:13:37.130Z,19.80
2018-01-15T10:16:05.027Z,21.40
2018-01-15T10:18:32.657Z,18.63
2018-01-15T10:21:01.047Z,18.97
2018-01-15T10:23:31.098Z,20.83
2018-01-15T10:26:01.097Z,19.47
2018-01-15T10:28:30.777Z,20.23
2018-01-15T10:30:58.793Z,21.50
2018-01-15T10:33:26.384Z,19.90
2018-01-15T10:35:59.914Z,19.93
2018-01-15T10:38:27.481Z,20.27
2018-01-15T10:40:55.075Z,20.97
2018-01-15T10:43:22.853Z,20.53
2018-01-15T10:45:51.018Z,21.90
2018-01-15T10:48:25.570Z,23.33
2018-01-15T10:50:56.042Z,20.93
2018-01-15T10:53:24.101Z,23.07
2018-01-15T10:55:52.440Z,21.90
2018-01-15T10:58:20.051Z,21.87
2018-01-15T11:00:52.548Z,22.77
2018-01-15T11:03:21.214Z,22.87
2018-01-15T11:05:50.719Z,22.87
2018-01-15T11:08:18.316Z,22.07
2018-01-15T11:10:47.714Z,22.33
2018-01-15T11:13:15.332Z,22.67
2018-01-15T11:15:43.758Z,22.93
2018-01-15T11:18:13.794Z,23.13
2018-01-15T11:20:43.958Z,22.47
2018-01-15T11:23:11.536Z,23.40
2018-01-15T11:25:39.141Z,23.83
2018-01-15T11:28:08.853Z,23.57
2018-01-15T11:30:36.454Z,23.20
2018-01-15T11:33:04.881Z,23.20
2018-01-15T11:35:32.500Z,24.00
2018-01-15T11:38:00.150Z,23.43
2018-01-15T11:40:30.232Z,24.03
2018-01-15T11:42:59.980Z,22.87
2018-01-15T11:45:29.816Z,23.13
2018-01-15T11:47:58.201Z,24.70
2018-01-15T11:50:27.681Z,23.73
2018-01-15T11:52:58.739Z,23.17
2018-01-15T11:55:26.306Z,21.73
2018-01-15T11:57:53.915Z,22.43
2018-01-15T12:00:21.478Z,20.53
2018-01-15T12:02:49.120Z,21.93
2018-01-15T12:05:18.567Z,20.37
2018-01-15T12:07:46.134Z,22.67
2018-01-15T12:10:14.511Z,21.00
2018-01-15T12:12:42.094Z,20.50
2018-01-15T12:15:09.705Z,22.47
2018-01-15T12:17:37.358Z,21.70
2018-01-15T12:20:04.936Z,21.23
2018-01-15T12:22:34.994Z,22.20
2018-01-15T12:25:04.971Z,21.00
2018-01-15T12:27:35.111Z,21.43
2018-01-15T12:30:02.699Z,18.87
2018-01-15T12:32:30.311Z,19.20
2018-01-15T12:34:57.885Z,17.67
2018-01-15T12:37:25.488Z,18.03
2018-01-15T12:39:55.383Z,18.23
2018-01-15T12:42:23.762Z,17.23
2018-01-15T12:44:52.096Z,16.60
2018-01-15T12:47:19.667Z,16.63
2018-01-15T12:49:49.493Z,16.53
2018-01-15T12:52:18.847Z,15.77
2018-01-15T12:54:46.510Z,15.47
2018-01-15T12:57:16.762Z,14.40
2018-01-15T12:59:44.343Z,15.33
2018-01-15T13:02:14.009Z,15.40
2018-01-15T13:04:41.580Z,13.60
2018-01-15T13:07:21.012Z,13.40
2018-01-15T13:09:52.328Z,13.37
2018-01-15T13:12:21.620Z,12.83
2018-01-15T13:14:49.349Z,12.13
2018-01-15T13:17:16.910Z,13.10
2018-01-15T13:19:44.542Z,14.17
2018-01-15T13:22:12.126Z,12.83
2018-01-15T13:24:40.927Z,11.90
2018-01-15T13:27:11.914Z,12.53
2018-01-15T13:29:40.110Z,11.70
2018-01-15T13:32:09.120Z,11.50
2018-01-15T13:34:38.736Z,11.40
2018-01-15T13:37:08.628Z,12.13
2018-01-15T13:39:36.356Z,11.43
2018-01-15T13:42:05.827Z,12.00
2018-01-15T13:44:33.476Z,11.73
2018-01-15T13:47:01.429Z,11.60
2018-01-15T13:49:33.845Z,11.00
2018-01-15T13:52:01.969Z,10.90
2018-01-15T13:54:30.257Z,11.70
2018-01-15T13:56:58.700Z,11.03
2018-01-15T13:59:26.901Z,11.43
2018-01-15T14:01:55.204Z,11.20
2018-01-15T14:04:28.336Z,11.53
2018-01-15T14:06:56.789Z,11.70
2018-01-15T14:09:25.371Z,11.50
2018-01-15T14:11:54.857Z,11.87
2018-01-15T14:14:22.835Z,11.53
2018-01-15T14:16:54.626Z,11.60
2018-01-15T14:19:22.496Z,11.70
2018-01-15T14:21:50.094Z,11.83
2018-01-15T14:24:17.682Z,12.17
2018-01-15T14:26:48.638Z,11.20
2018-01-15T14:29:16.220Z,11.17
2018-01-15T14:31:43.844Z,11.27
2018-01-15T14:34:13.506Z,14.40
2018-01-15T14:36:41.899Z,12.07
2018-01-15T14:39:09.476Z,13.20
2018-01-15T14:41:37.104Z,12.73
2018-01-15T14:44:06.400Z,12.30
2018-01-15T14:46:34.039Z,13.53
2018-01-15T14:49:01.652Z,14.20
2018-01-15T14:51:29.251Z,13.50
2018-01-15T14:53:56.923Z,13.07
2018-01-15T14:56:24.507Z,13.63
2018-01-15T14:58:52.079Z,13.10
2018-01-15T15:01:22.098Z,13.97
2018-01-15T15:03:50.117Z,13.70
2018-01-15T15:08:52.518Z,13.47
2018-01-15T15:11:21.327Z,13.27
2018-01-15T15:13:48.946Z,13.27
2018-01-15T15:16:24.565Z,14.10
2018-01-15T15:18:52.381Z,13.67
2018-01-15T15:21:20.002Z,12.63
2018-01-15T15:23:48.416Z,13.23
2018-01-15T15:26:18.050Z,12.27
2018-01-15T15:28:45.642Z,11.67
2018-01-15T15:31:13.209Z,12.40
2018-01-15T15:33:44.572Z,11.50
2018-01-15T15:36:14.343Z,11.20
2018-01-15T15:38:44.655Z,10.97
2018-01-15T15:41:15.037Z,10.87
2018-01-15T15:43:44.905Z,10.50
2018-01-15T15:46:16.184Z,9.27
2018-01-15T15:48:44.435Z,8.97
2018-01-15T15:51:13.433Z,8.57
2018-01-15T15:53:45.875Z,8.43
2018-01-15T15:56:18.208Z,8.57
2018-01-15T15:58:50.282Z,7.97
2018-01-15T16:01:24.160Z,8.57
2018-01-15T16:03:56.305Z,8.20
2018-01-15T16:06:27.263Z,8.37
2018-01-15T16:08:55.526Z,8.10
2018-01-15T16:11:24.865Z,9.03
2018-01-15T16:13:53.059Z,8.70
2018-01-15T16:16:20.869Z,8.90
2018-01-15T16:18:48.483Z,9.23
2018-01-15T16:21:16.094Z,9.90
2018-01-15T16:23:43.707Z,9.50
2018-01-15T16:26:11.327Z,10.83
2018-01-15T16:28:38.942Z,9.83
2018-01-15T16:31:06.511Z,10.00
2018-01-15T16:33:34.150Z,11.07
2018-01-15T16:36:01.726Z,11.37
2018-01-15T16:38:29.293Z,12.23
2018-01-15T16:40:56.917Z,11.43
2018-01-15T16:43:24.495Z,12.33
2018-01-15T16:45:52.110Z,12.53
2018-01-15T16:48:19.714Z,12.67
2018-01-15T16:50:47.341Z,12.93
2018-01-15T16:53:14.918Z,14.83
2018-01-15T16:55:43.295Z,14.27
2018-01-15T16:58:11.690Z,13.83
2018-01-15T17:00:39.363Z,14.20
2018-01-15T17:03:06.921Z,13.63
2018-01-15T17:05:34.536Z,14.97
2018-01-15T17:08:02.158Z,14.67
2018-01-15T17:10:29.779Z,15.20
2018-01-15T17:12:57.356Z,14.67
2018-01-15T17:15:24.959Z,15.43
2018-01-15T17:17:53.337Z,16.07
2018-01-15T17:20:20.938Z,14.57
2018-01-15T17:22:49.321Z,15.00
2018-01-15T17:25:17.673Z,15.57
2018-01-15T17:27:45.280Z,15.13
2018-01-15T17:30:13.002Z,15.23
2018-01-15T17:32:40.683Z,16.40
2018-01-15T17:35:09.062Z,16.67
2018-01-15T17:37:37.760Z,16.13
2018-01-15T17:40:06.117Z,17.77
2018-01-15T17:42:33.741Z,17.40
2018-01-15T17:45:01.341Z,17.27
2018-01-15T17:47:28.908Z,17.97
2018-01-15T17:49:56.974Z,16.93
2018-01-15T17:52:24.606Z,16.73
2018-01-15T17:54:52.195Z,17.23
2018-01-15T17:57:19.815Z,17.30
2018-01-15T17:59:47.425Z,17.37
2018-01-15T18:02:15.061Z,17.57
2018-01-15T18:04:42.639Z,17.83
2018-01-15T18:07:10.212Z,17.60
2018-01-15T18:09:37.835Z,17.90
2018-01-15T18:12:05.410Z,19.13
2018-01-15T18:14:33.014Z,17.87
2018-01-15T18:17:00.631Z,18.43
2018-01-15T18:19:29.026Z,16.73
2018-01-15T18:21:56.600Z,17.30
2018-01-15T18:24:24.978Z,17.83
2018-01-15T18:26:53.374Z,18.30
2018-01-15T18:29:21.712Z,17.03
2018-01-15T18:31:49.294Z,16.57
2018-01-15T18:34:16.916Z,16.77
2018-01-15T18:36:44.542Z,17.13
2018-01-15T18:39:12.110Z,17.83
2018-01-15T18:41:40.971Z,18.37
2018-01-15T18:44:08.630Z,17.50
2018-01-15T18:46:36.360Z,17.00
2018-01-15T18:49:04.193Z,16.17
2018-01-15T18:51:32.155Z,15.53
2018-01-15T18:54:00.098Z,16.80
2018-01-15T18:56:28.960Z,15.30
2018-01-15T18:58:58.758Z,15.40
2018-01-15T19:01:27.462Z,14.63
2018-01-15T19:03:56.121Z,13.60
2018-01-15T19:06:24.092Z,14.77
2018-01-15T19:08:52.987Z,13.97
2018-01-15T19:11:21.132Z,14.33
2018-01-15T19:13:49.240Z,14.40
2018-01-15T19:16:17.329Z,13.20
2018-01-15T19:18:46.228Z,12.33
2018-01-15T19:21:14.458Z,12.70
2018-01-15T19:26:23.762Z,13.07
2018-01-15T19:28:51.344Z,13.40
2018-01-15T19:31:18.929Z,12.83
2018-01-15T19:33:46.562Z,10.80
2018-01-15T19:36:19.883Z,11.87
2018-01-15T19:39:02.383Z,11.97
2018-01-15T19:41:36.584Z,10.93
2018-01-15T19:44:09.787Z,10.07
2018-01-15T19:46:43.692Z,9.43
2018-01-15T19:49:17.657Z,7.60
2018-01-15T19:51:50.948Z,7.57
2018-01-15T19:54:24.125Z,8.37
2018-01-15T19:56:57.333Z,8.90
2018-01-15T19:59:30.563Z,9.57
2018-01-15T20:02:13.016Z,9.63
2018-01-15T20:04:46.255Z,9.13
2018-01-15T20:07:19.584Z,8.73
2018-01-15T20:09:52.736Z,8.37
2018-01-15T20:12:20.305Z,7.97
2018-01-15T20:14:47.925Z,8.97
2018-01-15T20:17:15.502Z,8.57
2018-01-15T20:19:43.114Z,7.17
2018-01-15T20:22:10.747Z,8.00
2018-01-15T20:24:38.328Z,7.23
2018-01-15T20:27:05.956Z,7.23
2018-01-15T20:29:33.557Z,6.60
2018-01-15T20:32:01.126Z,7.13
2018-01-15T20:34:29.499Z,7.63
2018-01-15T20:36:57.833Z,7.50
2018-01-15T20:39:25.414Z,8.70
2018-01-15T20:41:53.023Z,8.10
2018-01-15T20:44:20.591Z,8.07
2018-01-15T20:46:48.306Z,8.90
2018-01-15T20:49:15.874Z,8.57
2018-01-15T20:51:43.457Z,9.53
2018-01-15T20:54:11.077Z,9.60
2018-01-15T20:56:38.665Z,11.47
2018-01-15T20:59:06.305Z,11.20
2018-01-15T21:01:33.889Z,11.20
2018-01-15T21:04:01.471Z,11.07
2018-01-15T21:06:29.136Z,10.93
2018-01-15T21:08:56.724Z,10.97
2018-01-15T21:11:24.294Z,11.27
2018-01-15T21:13:51.921Z,12.13
2018-01-15T21:16:19.500Z,12.50
2018-01-15T21:18:47.167Z,12.43
2018-01-15T21:21:14.742Z,12.17
2018-01-15T21:23:43.316Z,12.50
2018-01-15T21:26:10.943Z,13.20
2018-01-15T21:28:38.537Z,13.97
2018-01-15T21:31:06.163Z,13.10
2018-01-15T21:33:33.793Z,13.30
2018-01-15T21:36:01.402Z,13.43
2018-01-15T21:38:29.016Z,12.73
2018-01-15T21:40:56.625Z,12.63
2018-01-15T21:43:24.255Z,12.80
2018-01-15T21:45:51.830Z,13.17
2018-01-15T21:48:19.429Z,12.60
2018-01-15T21:50:47.049Z,13.17
2018-01-15T21:53:15.095Z,14.23
2018-01-15T21:55:42.712Z,13.60
2018-01-15T21:58:10.448Z,15.17
2018-01-15T22:00:38.816Z,14.20
2018-01-15T22:03:07.212Z,14.07
2018-01-15T22:05:35.573Z,14.20
2018-01-15T22:08:04.030Z,14.43
2018-01-15T22:10:31.828Z,14.27
2018-01-15T22:13:00.329Z,13.83
2018-01-15T22:15:28.043Z,13.73
2018-01-15T22:17:55.866Z,14.23
2018-01-15T22:20:23.711Z,15.00
2018-01-15T22:22:54.461Z,14.57
2018-01-15T22:25:23.050Z,14.53
2018-01-15T22:27:55.695Z,12.77
2018-01-15T22:30:23.663Z,11.87
2018-01-15T22:32:52.611Z,12.63
2018-01-15T22:35:20.366Z,11.67
2018-01-15T22:37:48.214Z,10.57
2018-01-15T22:40:18.738Z,10.73
2018-01-15T22:42:47.208Z,9.67
2018-01-15T22:45:15.421Z,9.40
2018-01-15T22:47:43.072Z,10.03
2018-01-15T22:50:10.705Z,8.73
2018-01-15T22:52:39.044Z,8.70
2018-01-15T22:55:06.703Z,9.90
2018-01-15T22:57:34.270Z,9.67
2018-01-15T23:00:03.158Z,8.20
2018-01-15T23:02:30.760Z,8.20
2018-01-15T23:04:59.219Z,8.40
2018-01-15T23:07:27.010Z,7.73
2018-01-15T23:09:54.625Z,7.53
2018-01-15T23:12:22.291Z,7.37
2018-01-15T23:14:50.949Z,7.30
2018-01-15T23:17:18.531Z,6.43
2018-01-15T23:19:46.323Z,6.60
2018-01-15T23:22:15.645Z,5.33
2018-01-15T23:24:43.357Z,4.17
2018-01-15T23:27:11.045Z,3.93
2018-01-15T23:29:38.750Z,4.97
2018-01-15T23:32:06.651Z,3.80
2018-01-15T23:34:34.263Z,4.40
2018-01-15T23:37:01.894Z,2.77
2018-01-15T23:39:29.525Z,3.30
2018-01-15T23:41:57.103Z,3.30
2018-01-15T23:44:24.747Z,3.23
2018-01-15T23:46:52.473Z,2.90
2018-01-15T23:49:20.098Z,2.53
2018-01-15T23:51:47.682Z,2.93
2018-01-15T23:54:27.052Z,2.73
2018-01-15T23:56:55.409Z,2.43
2018-01-15T23:59:23.165Z,2.10
